sensor_id;sensor_type;location;lat;lon;timestamp;pressure;altitude;pressure_sealevel;temperature;humidity
4598;BME280;62772;48.646;8.906;2023-02-21T00:03:36;96779.84;;;-0.57;100.00
4598;BME280;62772;48.646;8.906;2023-02-21T00:08:55;96774.00;;;0.52;100.00
4598;BME280;62772;48.646;8.906;2023-02-21T00:14:14;96761.13;;;0.80;100.00
4598;BME280;62772;48.646;8.906;2023-02-21T00:19:33;96762.97;;;0.39;100.00
4598;BME280;62772;48.646;8.906;2023-02-21T00:24:51;96765.59;;;-0.14;100.00
4598;BME280;62772;48.646;8.906;2023-02-21T00:30:11;96768.66;;;-0.29;100.00
4598;BME280;62772;48.646;8.906;2023-02-21T00:35:31;96761.16;;;-0.49;100.00
4598;BME280;62772;48.646;8.906;2023-02-21T00:40:50;96758.72;;;-0.86;100.00
4598;BME280;62772;48.646;8.906;2023-02-21T00:46:09;96751.47;;;0.28;100.00
4598;BME280;62772;48.646;8.906;2023-02-21T00:51:28;96747.50;;;0.02;100.00
4598;BME280;62772;48.646;8.906;2023-02-21T00:56:48;96747.66;;;-0.64;100.00
4598;BME280;62772;48.646;8.906;2023-02-21T01:02:07;96751.22;;;-0.35;100.00
4598;BME280;62772;48.646;8.906;2023-02-21T01:07:26;96751.50;;;-1.02;100.00
4598;BME280;62772;48.646;8.906;2023-02-21T01:12:45;96748.00;;;-0.73;100.00
4598;BME280;62772;48.646;8.906;2023-02-21T01:18:03;96739.22;;;-0.07;100.00
4598;BME280;62772;48.646;8.906;2023-02-21T01:23:22;96747.22;;;-0.61;100.00
4598;BME280;62772;48.646;8.906;2023-02-21T01:28:43;96737.06;;;-0.69;100.00
4598;BME280;62772;48.646;8.906;2023-02-21T01:34:02;96735.88;;;-0.97;100.00
4598;BME280;62772;48.646;8.906;2023-02-21T01:39:21;96734.41;;;-0.81;100.00
4598;BME280;62772;48.646;8.906;2023-02-21T01:44:44;96733.06;;;-0.72;100.00
4598;BME280;62772;48.646;8.906;2023-02-21T01:50:09;96732.81;;;-0.94;100.00
4598;BME280;62772;48.646;8.906;2023-02-21T01:55:29;96722.44;;;-0.65;100.00
4598;BME280;62772;48.646;8.906;2023-02-21T02:00:49;96728.13;;;-1.04;100.00
4598;BME280;62772;48.646;8.906;2023-02-21T02:06:12;96717.66;;;-0.92;100.00
4598;BME280;62772;48.646;8.906;2023-02-21T02:17:39;96715.91;;;-1.10;100.00
4598;BME280;62772;48.646;8.906;2023-02-21T02:33:48;96707.03;;;-0.97;100.00
4598;BME280;62772;48.646;8.906;2023-02-21T02:39:23;96699.16;;;-1.21;100.00
4598;BME280;62772;48.646;8.906;2023-02-21T02:44:37;96706.09;;;-1.26;100.00
4598;BME280;62772;48.646;8.906;2023-02-21T02:49:40;96695.50;;;-1.20;100.00
4598;BME280;62772;48.646;8.906;2023-02-21T02:54:42;96691.75;;;-1.24;100.00
4598;BME280;62772;48.646;8.906;2023-02-21T02:59:45;96693.38;;;-0.76;100.00
4598;BME280;62772;48.646;8.906;2023-02-21T03:10:23;96697.78;;;-1.12;100.00
4598;BME280;62772;48.646;8.906;2023-02-21T03:15:39;96688.00;;;-0.93;100.00
4598;BME280;62772;48.646;8.906;2023-02-21T03:20:45;96684.00;;;-1.07;100.00
4598;BME280;62772;48.646;8.906;2023-02-21T03:25:50;96678.56;;;-0.58;100.00
4598;BME280;62772;48.646;8.906;2023-02-21T03:30:55;96692.44;;;-0.22;100.00
4598;BME280;62772;48.646;8.906;2023-02-21T03:36:03;96681.94;;;-0.22;100.00
4598;BME280;62772;48.646;8.906;2023-02-21T03:41:06;96682.31;;;-0.89;100.00
4598;BME280;62772;48.646;8.906;2023-02-21T03:46:10;96685.13;;;-0.32;100.00
4598;BME280;62772;48.646;8.906;2023-02-21T03:51:11;96688.13;;;-0.52;100.00
4598;BME280;62772;48.646;8.906;2023-02-21T03:56:11;96679.34;;;-0.46;100.00
4598;BME280;62772;48.646;8.906;2023-02-21T04:01:35;96678.22;;;-0.74;100.00
4598;BME280;62772;48.646;8.906;2023-02-21T04:06:36;96679.13;;;-0.92;100.00
4598;BME280;62772;48.646;8.906;2023-02-21T04:11:42;96671.72;;;-0.71;100.00
4598;BME280;62772;48.646;8.906;2023-02-21T04:16:42;96675.03;;;-0.76;100.00
4598;BME280;62772;48.646;8.906;2023-02-21T04:21:43;96670.44;;;-0.45;100.00
4598;BME280;62772;48.646;8.906;2023-02-21T04:26:44;96674.66;;;-0.44;100.00
4598;BME280;62772;48.646;8.906;2023-02-21T04:31:45;96671.84;;;-0.78;100.00
4598;BME280;62772;48.646;8.906;2023-02-21T04:36:50;96678.09;;;-0.55;100.00
4598;BME280;62772;48.646;8.906;2023-02-21T04:41:50;96668.09;;;-0.70;100.00
4598;BME280;62772;48.646;8.906;2023-02-21T04:46:51;96676.94;;;-0.59;100.00
4598;BME280;62772;48.646;8.906;2023-02-21T04:51:52;96667.72;;;-0.50;100.00
4598;BME280;62772;48.646;8.906;2023-02-21T04:56:52;96667.38;;;-0.77;100.00
4598;BME280;62772;48.646;8.906;2023-02-21T05:01:53;96661.50;;;-0.32;100.00
4598;BME280;62772;48.646;8.906;2023-02-21T05:06:53;96666.34;;;-1.00;100.00
4598;BME280;62772;48.646;8.906;2023-02-21T05:11:54;96661.41;;;-1.32;100.00
4598;BME280;62772;48.646;8.906;2023-02-21T05:16:54;96651.50;;;-1.41;100.00
4598;BME280;62772;48.646;8.906;2023-02-21T05:21:56;96658.19;;;-1.46;100.00
4598;BME280;62772;48.646;8.906;2023-02-21T05:26:58;96658.50;;;-1.54;100.00
4598;BME280;62772;48.646;8.906;2023-02-21T05:31:58;96659.13;;;-1.40;100.00
4598;BME280;62772;48.646;8.906;2023-02-21T05:36:59;96665.31;;;-1.22;100.00
4598;BME280;62772;48.646;8.906;2023-02-21T05:41:59;96657.44;;;-1.11;100.00
4598;BME280;62772;48.646;8.906;2023-02-21T05:47:00;96661.88;;;-1.35;100.00
4598;BME280;62772;48.646;8.906;2023-02-21T05:52:01;96668.50;;;-1.08;100.00
4598;BME280;62772;48.646;8.906;2023-02-21T05:57:04;96663.13;;;-1.25;100.00
4598;BME280;62772;48.646;8.906;2023-02-21T06:02:04;96663.13;;;-1.68;100.00
4598;BME280;62772;48.646;8.906;2023-02-21T06:07:05;96662.19;;;-1.43;100.00
4598;BME280;62772;48.646;8.906;2023-02-21T06:12:05;96665.28;;;-1.34;100.00
4598;BME280;62772;48.646;8.906;2023-02-21T06:17:06;96657.72;;;-1.54;100.00
4598;BME280;62772;48.646;8.906;2023-02-21T06:22:06;96660.34;;;-1.42;100.00
4598;BME280;62772;48.646;8.906;2023-02-21T06:27:06;96657.66;;;-1.66;100.00
4598;BME280;62772;48.646;8.906;2023-02-21T06:32:07;96652.06;;;-1.39;100.00
4598;BME280;62772;48.646;8.906;2023-02-21T06:37:07;96654.19;;;-1.48;100.00
4598;BME280;62772;48.646;8.906;2023-02-21T06:42:12;96657.75;;;-1.42;100.00
4598;BME280;62772;48.646;8.906;2023-02-21T06:47:13;96655.25;;;-1.37;100.00
4598;BME280;62772;48.646;8.906;2023-02-21T06:52:14;96648.91;;;-1.06;100.00
4598;BME280;62772;48.646;8.906;2023-02-21T06:57:14;96659.03;;;-0.62;100.00
4598;BME280;62772;48.646;8.906;2023-02-21T07:02:17;96654.75;;;-0.68;100.00
4598;BME280;62772;48.646;8.906;2023-02-21T07:07:18;96647.31;;;-0.95;100.00
4598;BME280;62772;48.646;8.906;2023-02-21T07:12:18;96649.03;;;-0.77;100.00
4598;BME280;62772;48.646;8.906;2023-02-21T07:17:19;96643.41;;;-0.45;100.00
4598;BME280;62772;48.646;8.906;2023-02-21T07:22:19;96632.88;;;-0.33;100.00
4598;BME280;62772;48.646;8.906;2023-02-21T07:27:25;96638.75;;;-0.14;100.00
4598;BME280;62772;48.646;8.906;2023-02-21T07:32:25;96644.50;;;0.57;100.00
4598;BME280;62772;48.646;8.906;2023-02-21T07:37:26;96648.34;;;0.66;100.00
4598;BME280;62772;48.646;8.906;2023-02-21T07:42:26;96647.09;;;0.69;100.00
4598;BME280;62772;48.646;8.906;2023-02-21T07:47:27;96655.63;;;0.93;100.00
4598;BME280;62772;48.646;8.906;2023-02-21T07:52:27;96652.41;;;1.64;100.00
4598;BME280;62772;48.646;8.906;2023-02-21T07:57:28;96658.41;;;1.81;100.00
4598;BME280;62772;48.646;8.906;2023-02-21T08:02:28;96655.78;;;2.04;100.00
4598;BME280;62772;48.646;8.906;2023-02-21T08:07:29;96654.38;;;1.96;100.00
4598;BME280;62772;48.646;8.906;2023-02-21T08:12:29;96644.16;;;2.27;100.00
4598;BME280;62772;48.646;8.906;2023-02-21T08:17:30;96655.63;;;2.70;100.00
4598;BME280;62772;48.646;8.906;2023-02-21T08:22:30;96651.78;;;2.83;100.00
4598;BME280;62772;48.646;8.906;2023-02-21T08:27:31;96660.69;;;3.04;100.00
4598;BME280;62772;48.646;8.906;2023-02-21T08:32:33;96660.50;;;3.16;100.00
4598;BME280;62772;48.646;8.906;2023-02-21T08:37:34;96658.81;;;3.04;100.00
4598;BME280;62772;48.646;8.906;2023-02-21T08:42:36;96662.19;;;2.95;100.00
4598;BME280;62772;48.646;8.906;2023-02-21T08:47:37;96656.16;;;3.42;100.00
4598;BME280;62772;48.646;8.906;2023-02-21T08:52:37;96655.38;;;3.47;100.00
4598;BME280;62772;48.646;8.906;2023-02-21T08:57:38;96663.38;;;3.57;100.00
4598;BME280;62772;48.646;8.906;2023-02-21T09:02:39;96658.84;;;4.10;100.00
4598;BME280;62772;48.646;8.906;2023-02-21T09:07:39;96655.25;;;4.52;100.00
4598;BME280;62772;48.646;8.906;2023-02-21T09:12:40;96653.97;;;4.76;100.00
4598;BME280;62772;48.646;8.906;2023-02-21T09:17:40;96660.88;;;4.87;100.00
4598;BME280;62772;48.646;8.906;2023-02-21T09:22:44;96652.13;;;4.97;100.00
4598;BME280;62772;48.646;8.906;2023-02-21T09:27:44;96654.97;;;5.47;100.00
4598;BME280;62772;48.646;8.906;2023-02-21T09:32:46;96647.34;;;4.99;100.00
4598;BME280;62772;48.646;8.906;2023-02-21T09:37:47;96651.59;;;4.89;100.00
4598;BME280;62772;48.646;8.906;2023-02-21T09:42:49;96646.91;;;6.03;100.00
4598;BME280;62772;48.646;8.906;2023-02-21T09:47:53;96644.81;;;6.45;100.00
4598;BME280;62772;48.646;8.906;2023-02-21T09:52:56;96645.94;;;6.78;100.00
4598;BME280;62772;48.646;8.906;2023-02-21T09:57:57;96637.91;;;6.44;100.00
4598;BME280;62772;48.646;8.906;2023-02-21T10:03:25;96634.31;;;7.33;100.00
4598;BME280;62772;48.646;8.906;2023-02-21T10:09:02;96633.66;;;7.46;100.00
4598;BME280;62772;48.646;8.906;2023-02-21T10:19:42;96633.88;;;7.98;100.00
4598;BME280;62772;48.646;8.906;2023-02-21T10:24:43;96626.66;;;8.23;97.78
4598;BME280;62772;48.646;8.906;2023-02-21T10:29:51;96628.78;;;8.45;90.90
4598;BME280;62772;48.646;8.906;2023-02-21T10:34:55;96625.44;;;7.67;94.62
4598;BME280;62772;48.646;8.906;2023-02-21T10:40:03;96633.81;;;8.03;90.39
4598;BME280;62772;48.646;8.906;2023-02-21T10:45:06;96619.41;;;8.47;83.66
4598;BME280;62772;48.646;8.906;2023-02-21T10:50:08;96618.44;;;8.38;87.33
4598;BME280;62772;48.646;8.906;2023-02-21T10:55:17;96611.94;;;8.49;85.02
4598;BME280;62772;48.646;8.906;2023-02-21T11:00:39;96608.16;;;9.21;79.49
4598;BME280;62772;48.646;8.906;2023-02-21T11:05:48;96602.53;;;9.37;75.68
4598;BME280;62772;48.646;8.906;2023-02-21T11:10:53;96600.97;;;9.63;72.97
4598;BME280;62772;48.646;8.906;2023-02-21T11:16:18;96593.84;;;9.87;70.67
4598;BME280;62772;48.646;8.906;2023-02-21T11:21:21;96585.06;;;9.58;70.26
4598;BME280;62772;48.646;8.906;2023-02-21T11:26:22;96584.28;;;9.44;68.27
4598;BME280;62772;48.646;8.906;2023-02-21T11:31:31;96575.41;;;10.41;62.97
4598;BME280;62772;48.646;8.906;2023-02-21T11:36:34;96565.50;;;9.77;65.29
4598;BME280;62772;48.646;8.906;2023-02-21T11:41:44;96552.47;;;9.75;68.11
4598;BME280;62772;48.646;8.906;2023-02-21T11:46:46;96549.28;;;10.60;61.65
4598;BME280;62772;48.646;8.906;2023-02-21T11:52:08;96533.94;;;10.66;57.89
4598;BME280;62772;48.646;8.906;2023-02-21T11:57:42;96531.50;;;10.56;57.68
4598;BME280;62772;48.646;8.906;2023-02-21T12:02:58;96518.84;;;10.93;55.83
4598;BME280;62772;48.646;8.906;2023-02-21T12:29:16;96475.50;;;10.64;58.94
4598;BME280;62772;48.646;8.906;2023-02-21T12:50:20;96437.28;;;11.53;54.53
4598;BME280;62772;48.646;8.906;2023-02-21T12:55:24;96433.16;;;11.38;54.57
4598;BME280;62772;48.646;8.906;2023-02-21T13:05:53;96416.63;;;11.18;55.54
4598;BME280;62772;48.646;8.906;2023-02-21T13:11:09;96403.78;;;11.55;55.67
4598;BME280;62772;48.646;8.906;2023-02-21T13:16:13;96380.94;;;11.40;54.65
4598;BME280;62772;48.646;8.906;2023-02-21T13:32:12;96364.50;;;12.38;53.71
4598;BME280;62772;48.646;8.906;2023-02-21T13:37:21;96352.28;;;12.58;52.41
4598;BME280;62772;48.646;8.906;2023-02-21T13:42:25;96350.44;;;12.50;52.23
4598;BME280;62772;48.646;8.906;2023-02-21T13:53:17;96332.16;;;11.87;54.52
4598;BME280;62772;48.646;8.906;2023-02-21T14:08:31;96318.03;;;12.34;52.08
4598;BME280;62772;48.646;8.906;2023-02-21T14:18:43;96301.13;;;12.51;52.52
4598;BME280;62772;48.646;8.906;2023-02-21T14:23:48;96298.06;;;12.91;51.02
4598;BME280;62772;48.646;8.906;2023-02-21T14:33:57;96291.00;;;12.86;51.12
4598;BME280;62772;48.646;8.906;2023-02-21T14:38:58;96289.63;;;12.50;51.71
4598;BME280;62772;48.646;8.906;2023-02-21T14:49:09;96272.50;;;12.43;52.18
4598;BME280;62772;48.646;8.906;2023-02-21T15:05:21;96261.50;;;12.65;52.18
4598;BME280;62772;48.646;8.906;2023-02-21T15:10:30;96260.88;;;12.60;51.07
4598;BME280;62772;48.646;8.906;2023-02-21T15:20:35;96256.69;;;12.80;50.94
4598;BME280;62772;48.646;8.906;2023-02-21T15:25:36;96255.47;;;13.40;49.72
4598;BME280;62772;48.646;8.906;2023-02-21T15:30:40;96248.47;;;13.48;49.47
4598;BME280;62772;48.646;8.906;2023-02-21T15:35:49;96240.09;;;13.29;49.58
4598;BME280;62772;48.646;8.906;2023-02-21T15:40:53;96239.63;;;13.05;50.51
4598;BME280;62772;48.646;8.906;2023-02-21T15:45:57;96236.31;;;12.87;51.16
4598;BME280;62772;48.646;8.906;2023-02-21T15:51:04;96237.69;;;12.94;50.36
4598;BME280;62772;48.646;8.906;2023-02-21T15:56:19;96226.16;;;12.72;51.68
4598;BME280;62772;48.646;8.906;2023-02-21T16:01:19;96233.31;;;12.59;53.20
4598;BME280;62772;48.646;8.906;2023-02-21T16:06:29;96218.50;;;12.62;53.55
4598;BME280;62772;48.646;8.906;2023-02-21T16:16:40;96219.34;;;12.24;54.91
4598;BME280;62772;48.646;8.906;2023-02-21T16:21:40;96221.09;;;12.20;55.25
4598;BME280;62772;48.646;8.906;2023-02-21T16:26:41;96222.50;;;11.70;57.21
4598;BME280;62772;48.646;8.906;2023-02-21T16:31:41;96226.53;;;11.20;61.78
4598;BME280;62772;48.646;8.906;2023-02-21T16:36:42;96224.31;;;10.87;65.42
4598;BME280;62772;48.646;8.906;2023-02-21T16:41:42;96229.25;;;9.96;72.79
4598;BME280;62772;48.646;8.906;2023-02-21T16:46:43;96235.81;;;9.36;77.23
4598;BME280;62772;48.646;8.906;2023-02-21T16:51:45;96233.50;;;9.20;78.91
4598;BME280;62772;48.646;8.906;2023-02-21T16:56:49;96225.19;;;8.63;86.22
4598;BME280;62772;48.646;8.906;2023-02-21T17:01:50;96230.81;;;8.47;89.00
4598;BME280;62772;48.646;8.906;2023-02-21T17:06:56;96234.97;;;8.26;91.73
4598;BME280;62772;48.646;8.906;2023-02-21T17:11:58;96231.41;;;8.16;92.93
4598;BME280;62772;48.646;8.906;2023-02-21T17:16:59;96242.31;;;7.73;97.28
4598;BME280;62772;48.646;8.906;2023-02-21T17:22:00;96245.56;;;7.70;99.29
4598;BME280;62772;48.646;8.906;2023-02-21T17:27:00;96246.16;;;7.81;97.08
4598;BME280;62772;48.646;8.906;2023-02-21T17:32:01;96247.19;;;8.13;94.96
4598;BME280;62772;48.646;8.906;2023-02-21T17:37:06;96242.50;;;7.77;97.85
4598;BME280;62772;48.646;8.906;2023-02-21T17:42:08;96246.50;;;8.63;95.47
4598;BME280;62772;48.646;8.906;2023-02-21T17:47:09;96259.97;;;8.80;95.00
4598;BME280;62772;48.646;8.906;2023-02-21T17:52:09;96256.88;;;8.87;95.80
4598;BME280;62772;48.646;8.906;2023-02-21T17:57:11;96254.19;;;8.50;94.66
4598;BME280;62772;48.646;8.906;2023-02-21T18:02:11;96266.81;;;7.37;100.00
4598;BME280;62772;48.646;8.906;2023-02-21T18:07:12;96273.88;;;7.09;100.00
4598;BME280;62772;48.646;8.906;2023-02-21T18:12:12;96267.38;;;6.58;100.00
4598;BME280;62772;48.646;8.906;2023-02-21T18:17:13;96264.97;;;6.62;100.00
4598;BME280;62772;48.646;8.906;2023-02-21T18:22:13;96274.88;;;6.32;100.00
4598;BME280;62772;48.646;8.906;2023-02-21T18:27:14;96273.66;;;5.66;100.00
4598;BME280;62772;48.646;8.906;2023-02-21T18:32:15;96286.63;;;5.33;100.00
4598;BME280;62772;48.646;8.906;2023-02-21T18:37:16;96274.06;;;5.14;100.00
4598;BME280;62772;48.646;8.906;2023-02-21T18:42:16;96274.03;;;5.19;100.00
4598;BME280;62772;48.646;8.906;2023-02-21T18:47:18;96272.91;;;4.86;100.00
4598;BME280;62772;48.646;8.906;2023-02-21T18:52:19;96265.94;;;5.00;100.00
4598;BME280;62772;48.646;8.906;2023-02-21T18:57:20;96271.84;;;4.87;100.00
4598;BME280;62772;48.646;8.906;2023-02-21T19:02:22;96271.19;;;4.61;100.00
4598;BME280;62772;48.646;8.906;2023-02-21T19:07:22;96272.06;;;4.46;100.00
4598;BME280;62772;48.646;8.906;2023-02-21T19:12:22;96271.81;;;4.37;100.00
4598;BME280;62772;48.646;8.906;2023-02-21T19:17:23;96270.06;;;4.17;100.00
4598;BME280;62772;48.646;8.906;2023-02-21T19:22:23;96270.06;;;4.07;100.00
4598;BME280;62772;48.646;8.906;2023-02-21T19:27:24;96256.63;;;3.88;100.00
4598;BME280;62772;48.646;8.906;2023-02-21T19:32:24;96260.59;;;3.90;100.00
4598;BME280;62772;48.646;8.906;2023-02-21T19:37:25;96260.34;;;3.92;100.00
4598;BME280;62772;48.646;8.906;2023-02-21T19:42:25;96265.16;;;3.54;100.00
4598;BME280;62772;48.646;8.906;2023-02-21T19:47:26;96258.00;;;3.54;100.00
4598;BME280;62772;48.646;8.906;2023-02-21T19:52:27;96258.81;;;3.14;100.00
4598;BME280;62772;48.646;8.906;2023-02-21T19:57:28;96261.97;;;3.21;100.00
4598;BME280;62772;48.646;8.906;2023-02-21T20:02:28;96262.50;;;3.02;100.00
4598;BME280;62772;48.646;8.906;2023-02-21T20:07:31;96262.22;;;3.45;100.00
4598;BME280;62772;48.646;8.906;2023-02-21T20:12:31;96264.38;;;3.53;100.00
4598;BME280;62772;48.646;8.906;2023-02-21T20:17:34;96271.75;;;3.15;100.00
4598;BME280;62772;48.646;8.906;2023-02-21T20:22:34;96269.38;;;3.24;100.00
4598;BME280;62772;48.646;8.906;2023-02-21T20:27:35;96267.91;;;2.49;100.00
4598;BME280;62772;48.646;8.906;2023-02-21T20:32:35;96270.91;;;2.84;100.00
4598;BME280;62772;48.646;8.906;2023-02-21T20:37:36;96269.09;;;3.00;100.00
4598;BME280;62772;48.646;8.906;2023-02-21T20:42:37;96266.94;;;2.81;100.00
4598;BME280;62772;48.646;8.906;2023-02-21T20:47:38;96266.88;;;2.56;100.00
4598;BME280;62772;48.646;8.906;2023-02-21T20:52:38;96262.75;;;2.96;100.00
4598;BME280;62772;48.646;8.906;2023-02-21T20:57:39;96264.69;;;2.32;100.00
4598;BME280;62772;48.646;8.906;2023-02-21T21:02:40;96258.97;;;2.50;100.00
4598;BME280;62772;48.646;8.906;2023-02-21T21:07:41;96259.59;;;3.14;100.00
4598;BME280;62772;48.646;8.906;2023-02-21T21:12:42;96262.78;;;2.17;100.00
4598;BME280;62772;48.646;8.906;2023-02-21T21:17:43;96261.50;;;2.25;100.00
4598;BME280;62772;48.646;8.906;2023-02-21T21:22:44;96259.66;;;1.72;100.00
4598;BME280;62772;48.646;8.906;2023-02-21T21:27:45;96252.00;;;1.71;100.00
4598;BME280;62772;48.646;8.906;2023-02-21T21:32:47;96258.34;;;1.75;100.00
4598;BME280;62772;48.646;8.906;2023-02-21T21:37:47;96259.06;;;1.60;100.00
4598;BME280;62772;48.646;8.906;2023-02-21T21:42:50;96253.44;;;1.89;100.00
4598;BME280;62772;48.646;8.906;2023-02-21T21:47:55;96255.13;;;2.10;100.00
4598;BME280;62772;48.646;8.906;2023-02-21T21:52:59;96251.50;;;1.74;100.00
4598;BME280;62772;48.646;8.906;2023-02-21T21:57:59;96249.84;;;2.10;100.00
4598;BME280;62772;48.646;8.906;2023-02-21T22:03:00;96255.03;;;1.52;100.00
4598;BME280;62772;48.646;8.906;2023-02-21T22:08:01;96253.06;;;1.75;100.00
4598;BME280;62772;48.646;8.906;2023-02-21T22:13:02;96237.78;;;2.25;100.00
4598;BME280;62772;48.646;8.906;2023-02-21T22:18:16;96248.00;;;1.63;100.00
4598;BME280;62772;48.646;8.906;2023-02-21T22:23:19;96238.13;;;1.43;100.00
4598;BME280;62772;48.646;8.906;2023-02-21T22:28:25;96237.22;;;1.27;100.00
4598;BME280;62772;48.646;8.906;2023-02-21T22:33:26;96243.84;;;1.30;100.00
4598;BME280;62772;48.646;8.906;2023-02-21T22:38:27;96238.38;;;1.04;100.00
4598;BME280;62772;48.646;8.906;2023-02-21T22:43:27;96233.41;;;1.07;100.00
4598;BME280;62772;48.646;8.906;2023-02-21T22:48:28;96223.94;;;1.44;100.00
4598;BME280;62772;48.646;8.906;2023-02-21T22:53:28;96219.34;;;1.67;100.00
4598;BME280;62772;48.646;8.906;2023-02-21T22:58:28;96219.53;;;1.55;100.00
4598;BME280;62772;48.646;8.906;2023-02-21T23:03:31;96225.44;;;0.97;100.00
4598;BME280;62772;48.646;8.906;2023-02-21T23:08:32;96222.25;;;1.27;100.00
4598;BME280;62772;48.646;8.906;2023-02-21T23:13:35;96223.56;;;0.65;100.00
4598;BME280;62772;48.646;8.906;2023-02-21T23:18:36;96221.53;;;0.72;100.00
4598;BME280;62772;48.646;8.906;2023-02-21T23:23:38;96213.94;;;0.76;100.00
4598;BME280;62772;48.646;8.906;2023-02-21T23:28:40;96213.81;;;1.25;100.00
4598;BME280;62772;48.646;8.906;2023-02-21T23:33:40;96215.69;;;0.65;100.00
4598;BME280;62772;48.646;8.906;2023-02-21T23:38:41;96209.63;;;0.65;100.00
4598;BME280;62772;48.646;8.906;2023-02-21T23:43:42;96205.44;;;0.96;100.00
4598;BME280;62772;48.646;8.906;2023-02-21T23:48:45;96199.16;;;1.40;100.00
4598;BME280;62772;48.646;8.906;2023-02-21T23:53:45;96195.16;;;0.95;100.00
4598;BME280;62772;48.646;8.906;2023-02-21T23:58:46;96195.50;;;0.44;100.00
